Time;durP1;ratioP1;P1;durP2;ratioP2;P2;SDS_P1;SDS_P2;PMS_P1;PMS_P2;Temp;Humidity;BMP_temperature;BMP_pressure;BME280_temperature;BME280_humidity;BME280_pressure;Samples;Min_cycle;Max_cycle;Signal;HPM_P1;HPM_P2
2023/01/07 00:01:02;;;;;;;0.50;0.50;;;8.60;69.10;;;;;;4974175;28;20032;-77
2023/01/07 00:03:28;;;;;;;0.80;0.68;;;8.50;70.10;;;;;;4973981;28;20027;-78
2023/01/07 00:06:01;;;;;;;1.17;0.93;;;8.50;71.00;;;;;;4974061;28;20023;-76
2023/01/07 00:08:31;;;;;;;0.77;0.70;;;8.50;70.50;;;;;;4973639;28;20129;-79
2023/01/07 00:11:05;;;;;;;0.95;0.70;;;8.50;70.30;;;;;;4974201;28;20420;-79
2023/01/07 00:13:31;;;;;;;1.15;0.93;;;8.40;70.10;;;;;;4974061;28;20031;-77
2023/01/07 00:16:03;;;;;;;0.80;0.57;;;8.40;70.50;;;;;;4973831;28;20029;-78
2023/01/07 00:18:29;;;;;;;2.65;0.88;;;8.40;70.60;;;;;;4973898;28;20079;-78
2023/01/07 00:20:59;;;;;;;2.65;0.88;;;8.30;71.40;;;;;;4973635;28;20594;-78
2023/01/07 00:23:26;;;;;;;0.90;0.82;;;8.30;71.60;;;;;;4991046;28;20091;-77
2023/01/07 00:25:57;;;;;;;1.73;1.02;;;8.30;71.50;;;;;;4973510;28;20023;-76
2023/01/07 00:28:23;;;;;;;0.82;0.68;;;8.20;71.40;;;;;;4973655;28;20574;-75
2023/01/07 00:30:48;;;;;;;1.15;1.00;;;8.30;71.40;;;;;;4973641;28;20069;-76
2023/01/07 00:33:15;;;;;;;1.30;1.20;;;8.20;71.60;;;;;;4973303;28;20145;-77
2023/01/07 00:35:43;;;;;;;1.73;1.08;;;8.30;71.70;;;;;;4973845;28;20079;-76
2023/01/07 00:38:09;;;;;;;1.10;1.00;;;8.30;71.60;;;;;;4973506;28;20026;-77
2023/01/07 00:40:35;;;;;;;1.17;1.08;;;8.30;71.40;;;;;;4973367;28;20033;-76
2023/01/07 00:43:05;;;;;;;1.05;0.98;;;8.30;71.30;;;;;;4973644;28;20045;-79
2023/01/07 00:45:36;;;;;;;0.77;0.73;;;8.40;71.20;;;;;;4973144;28;20049;-79
2023/01/07 00:48:03;;;;;;;0.85;0.85;;;8.40;71.10;;;;;;4989481;28;20038;-80
2023/01/07 00:50:33;;;;;;;0.68;0.68;;;8.40;71.30;;;;;;4973606;28;20030;-79
2023/01/07 00:52:59;;;;;;;0.90;0.85;;;8.40;71.40;;;;;;4970290;28;20137;-79
2023/01/07 00:55:25;;;;;;;0.80;0.65;;;8.40;71.50;;;;;;4954405;28;20066;-80
2023/01/07 00:57:51;;;;;;;0.85;0.85;;;8.50;71.30;;;;;;4969944;28;20027;-80
2023/01/07 01:00:19;;;;;;;1.85;0.80;;;8.50;71.20;;;;;;4969993;28;20046;-81
2023/01/07 01:02:46;;;;;;;0.85;0.82;;;8.50;71.30;;;;;;4969872;28;20053;-79
2023/01/07 01:05:12;;;;;;;2.00;1.20;;;8.50;71.30;;;;;;4969422;28;20026;-77
2023/01/07 01:07:38;;;;;;;1.63;1.00;;;8.50;71.20;;;;;;4969823;28;20039;-78
2023/01/07 01:10:06;;;;;;;1.45;1.20;;;8.50;71.30;;;;;;4969834;28;20019;-79
2023/01/07 01:12:34;;;;;;;2.17;1.55;;;8.40;71.70;;;;;;4969817;28;20476;-78
2023/01/07 01:15:00;;;;;;;2.13;1.40;;;8.20;71.70;;;;;;4954145;28;20054;-79
2023/01/07 01:17:26;;;;;;;1.40;1.30;;;8.10;71.70;;;;;;4969717;28;20031;-78
2023/01/07 01:19:51;;;;;;;1.50;1.40;;;8.20;71.70;;;;;;4970062;28;20042;-77
2023/01/07 01:22:17;;;;;;;2.35;1.35;;;8.20;71.50;;;;;;4969730;28;20110;-76
2023/01/07 01:24:42;;;;;;;2.55;1.77;;;8.10;71.30;;;;;;4969781;28;20130;-76
2023/01/07 01:27:08;;;;;;;1.40;1.30;;;8.10;71.40;;;;;;4969663;28;20031;-76
2023/01/07 01:29:34;;;;;;;2.40;1.40;;;8.10;71.50;;;;;;4969694;28;20027;-76
2023/01/07 01:31:59;;;;;;;1.40;1.30;;;8.10;71.50;;;;;;4969651;28;20051;-76
2023/01/07 01:34:25;;;;;;;1.30;1.10;;;8.20;71.50;;;;;;4969349;28;20424;-77
2023/01/07 01:36:51;;;;;;;1.98;1.30;;;8.20;71.10;;;;;;4969916;28;20034;-76
2023/01/07 01:39:19;;;;;;;1.50;1.30;;;8.20;71.10;;;;;;4969926;28;20025;-76
2023/01/07 01:41:46;;;;;;;1.30;1.20;;;8.30;71.00;;;;;;4953833;28;20035;-76
2023/01/07 01:44:34;;;;;;;1.27;1.17;;;8.30;70.80;;;;;;4969477;28;20019;-76
2023/01/07 01:47:00;;;;;;;1.52;1.00;;;8.30;70.90;;;;;;4969446;28;20110;-76
2023/01/07 01:49:34;;;;;;;1.33;1.20;;;8.20;71.00;;;;;;4969630;28;20054;-77
2023/01/07 01:52:06;;;;;;;1.27;1.17;;;8.30;71.20;;;;;;4968962;28;20509;-76
2023/01/07 01:54:32;;;;;;;1.52;1.30;;;8.20;71.50;;;;;;4970991;28;20046;-79
2023/01/07 01:57:03;;;;;;;1.33;1.23;;;8.10;72.00;;;;;;4970616;28;20034;-77
2023/01/07 01:59:32;;;;;;;1.27;1.17;;;8.00;72.10;;;;;;4972445;28;20055;-77
2023/01/07 02:01:57;;;;;;;1.90;1.50;;;7.90;71.60;;;;;;4972614;28;20096;-76
2023/01/07 02:04:26;;;;;;;1.55;1.40;;;7.80;72.50;;;;;;4972877;28;20038;-76
2023/01/07 02:07:03;;;;;;;1.35;1.17;;;7.70;72.10;;;;;;4956605;28;20039;-76
2023/01/07 02:09:28;;;;;;;1.20;1.10;;;7.70;71.90;;;;;;4972382;28;20479;-76
2023/01/07 02:12:02;;;;;;;2.45;1.23;;;7.70;71.60;;;;;;4972897;28;20134;-76
2023/01/07 02:14:35;;;;;;;1.85;1.60;;;7.70;71.50;;;;;;4972569;28;20029;-76
2023/01/07 02:17:38;;;;;;;1.63;1.52;;;7.70;71.80;;;;;;4972559;28;20034;-76
2023/01/07 02:20:29;;;;;;;1.17;1.08;;;7.60;71.70;;;;;;4972193;28;20022;-76
2023/01/07 02:23:13;;;;;;;2.35;1.42;;;7.60;72.30;;;;;;4972650;28;20501;-77
2023/01/07 02:25:57;;;;;;;3.17;1.35;;;7.70;72.50;;;;;;4972403;28;20031;-76
2023/01/07 02:28:51;;;;;;;2.03;1.55;;;7.70;72.30;;;;;;4971887;28;20415;-76
2023/01/07 02:31:25;;;;;;;2.83;1.60;;;7.60;72.70;;;;;;4972302;28;20378;-76
2023/01/07 02:34:03;;;;;;;1.30;1.13;;;7.50;73.30;;;;;;4972338;28;20027;-74
2023/01/07 02:36:55;;;;;;;2.45;1.75;;;7.60;72.70;;;;;;4971740;28;20065;-75
2023/01/07 02:39:27;;;;;;;2.28;1.70;;;7.60;72.60;;;;;;4972186;28;20023;-74
2023/01/07 02:41:59;;;;;;;2.17;1.80;;;7.60;72.80;;;;;;4972190;28;20084;-75
2023/01/07 02:44:52;;;;;;;1.92;1.50;;;7.50;73.30;;;;;;4955871;28;20034;-75
2023/01/07 02:47:28;;;;;;;3.90;1.83;;;7.50;73.40;;;;;;4972074;28;20031;-74
2023/01/07 02:49:54;;;;;;;2.15;1.73;;;7.50;73.50;;;;;;4972011;28;20064;-75
2023/01/07 02:52:29;;;;;;;1.45;1.35;;;7.50;73.70;;;;;;4971710;28;20126;-74
2023/01/07 02:55:07;;;;;;;2.03;1.73;;;7.60;73.40;;;;;;4971717;28;20027;-74
2023/01/07 02:57:46;;;;;;;1.58;1.38;;;7.50;73.70;;;;;;4971651;28;20027;-74
2023/01/07 03:00:37;;;;;;;1.95;1.67;;;7.50;74.10;;;;;;4971863;28;20172;-73
2023/01/07 03:03:17;;;;;;;2.45;1.70;;;7.50;73.90;;;;;;4971794;28;20030;-74
2023/01/07 03:06:16;;;;;;;2.40;1.90;;;7.60;74.00;;;;;;4971746;28;20057;-74
2023/01/07 03:09:02;;;;;;;1.50;1.40;;;7.60;73.90;;;;;;4971616;28;20125;-77
2023/01/07 03:11:36;;;;;;;1.63;1.40;;;7.50;74.20;;;;;;4971630;28;20023;-74
2023/01/07 03:14:19;;;;;;;1.63;1.40;;;7.50;74.20;;;;;;4971307;28;20027;-74
2023/01/07 03:16:52;;;;;;;1.70;1.20;;;7.50;74.40;;;;;;4971807;28;20031;-73
2023/01/07 03:19:21;;;;;;;1.40;1.10;;;7.40;74.50;;;;;;4971451;28;20309;-76
2023/01/07 03:21:50;;;;;;;1.70;1.30;;;7.40;74.60;;;;;;4971605;28;20467;-76
2023/01/07 03:24:16;;;;;;;1.58;1.48;;;7.30;74.80;;;;;;4970976;28;20023;-76
2023/01/07 03:26:46;;;;;;;1.88;1.65;;;7.30;74.90;;;;;;4971084;28;20029;-78
2023/01/07 03:29:15;;;;;;;1.60;1.50;;;7.30;75.00;;;;;;4987620;28;20031;-76
2023/01/07 03:31:50;;;;;;;1.90;1.50;;;7.30;75.50;;;;;;4971568;28;20031;-76
2023/01/07 03:34:19;;;;;;;1.50;1.40;;;7.30;75.60;;;;;;4971519;28;20031;-76
2023/01/07 03:36:52;;;;;;;2.15;1.90;;;7.30;75.80;;;;;;4971586;28;20023;-76
2023/01/07 03:39:20;;;;;;;1.92;1.73;;;7.30;75.60;;;;;;4971032;28;20026;-78
2023/01/07 03:44:33;;;;;;;2.42;1.88;;;7.40;76.40;;;;;;4972692;28;20077;-80
2023/01/07 03:46:59;;;;;;;2.28;1.88;;;7.40;75.20;;;;;;4971152;28;20077;-77
2023/01/07 03:49:25;;;;;;;2.70;1.70;;;7.50;75.40;;;;;;4970853;28;20027;-80
2023/01/07 03:51:53;;;;;;;2.03;1.48;;;7.50;75.20;;;;;;4970905;28;20050;-78
2023/01/07 03:54:19;;;;;;;1.95;1.50;;;7.50;75.10;;;;;;4970902;28;20034;-80
2023/01/07 03:56:45;;;;;;;1.33;1.10;;;7.60;75.00;;;;;;4971181;28;20027;-80
2023/01/07 03:59:10;;;;;;;1.48;1.23;;;7.60;75.70;;;;;;4970994;28;20031;-80
2023/01/07 04:01:37;;;;;;;1.75;1.20;;;7.70;74.70;;;;;;4970841;28;20459;-80
2023/01/07 04:04:03;;;;;;;2.20;1.40;;;7.70;74.50;;;;;;4954899;28;20149;-80
2023/01/07 04:06:28;;;;;;;1.80;0.90;;;7.80;74.00;;;;;;4970280;28;20058;-80
2023/01/07 04:08:55;;;;;;;1.17;1.00;;;7.90;74.00;;;;;;4979958;28;20042;-78
2023/01/07 04:11:21;;;;;;;0.80;0.80;;;8.00;73.80;;;;;;4974200;28;20058;-80
2023/01/07 04:13:46;;;;;;;1.83;1.13;;;8.00;73.60;;;;;;4970532;28;20073;-79
2023/01/07 04:16:12;;;;;;;1.13;0.90;;;8.00;73.50;;;;;;4970520;28;20019;-79
2023/01/07 04:18:37;;;;;;;1.38;1.05;;;8.10;73.40;;;;;;4970399;28;20034;-80
2023/01/07 04:21:03;;;;;;;1.92;1.20;;;8.10;73.40;;;;;;4969801;28;20027;-80
2023/01/07 04:23:29;;;;;;;1.08;0.80;;;8.20;73.30;;;;;;4970504;28;20023;-78
2023/01/07 04:25:54;;;;;;;1.13;0.88;;;8.20;73.10;;;;;;4970657;28;20168;-77
2023/01/07 04:28:20;;;;;;;1.10;1.00;;;8.30;73.10;;;;;;4970577;28;20403;-77
2023/01/07 04:30:45;;;;;;;1.38;0.90;;;8.30;72.70;;;;;;4970739;28;20079;-77
2023/01/07 04:33:11;;;;;;;1.25;0.95;;;8.30;72.80;;;;;;4970286;28;20058;-76
2023/01/07 04:35:38;;;;;;;1.25;0.70;;;8.30;72.80;;;;;;4970248;28;20027;-76
2023/01/07 04:38:04;;;;;;;1.52;0.90;;;8.30;72.70;;;;;;4970646;28;20026;-77
2023/01/07 04:40:30;;;;;;;1.20;1.08;;;8.30;72.60;;;;;;4970634;28;20368;-78
2023/01/07 04:42:55;;;;;;;2.42;1.55;;;8.30;72.50;;;;;;4970512;28;20026;-77
2023/01/07 04:45:21;;;;;;;3.10;1.17;;;8.40;72.40;;;;;;4970012;28;20027;-75
2023/01/07 04:47:47;;;;;;;1.65;1.23;;;8.40;72.40;;;;;;4969737;28;20145;-75
2023/01/07 04:50:12;;;;;;;0.70;0.70;;;8.30;72.20;;;;;;4970204;28;20273;-76
2023/01/07 04:52:39;;;;;;;1.77;0.80;;;8.40;72.30;;;;;;4953682;28;20136;-74
2023/01/07 04:55:06;;;;;;;0.80;0.80;;;8.30;72.30;;;;;;4970104;28;20707;-75
2023/01/07 04:57:31;;;;;;;0.60;0.60;;;8.30;72.50;;;;;;4970078;28;20031;-75
2023/01/07 04:59:57;;;;;;;0.80;0.75;;;8.30;72.50;;;;;;4970346;28;20027;-75
2023/01/07 05:02:23;;;;;;;1.10;0.90;;;8.30;72.60;;;;;;4970378;28;20546;-75
2023/01/07 05:04:49;;;;;;;0.60;0.60;;;8.40;73.10;;;;;;4986075;28;20027;-75
2023/01/07 05:07:14;;;;;;;1.33;0.85;;;8.40;72.50;;;;;;4970230;28;20066;-75
2023/01/07 05:09:40;;;;;;;0.80;0.80;;;8.30;73.40;;;;;;4969951;28;20037;-76
2023/01/07 05:12:05;;;;;;;0.82;0.70;;;8.30;72.70;;;;;;4970128;28;20433;-75
2023/01/07 05:14:31;;;;;;;0.63;0.57;;;8.30;72.80;;;;;;4970050;28;20448;-77
2023/01/07 05:16:57;;;;;;;1.33;0.70;;;8.30;72.80;;;;;;4969824;28;20026;-76
2023/01/07 05:19:22;;;;;;;1.10;0.73;;;8.20;72.90;;;;;;4969813;28;20217;-77
2023/01/07 05:21:48;;;;;;;1.30;1.20;;;8.20;72.90;;;;;;4970076;28;20015;-79
2023/01/07 05:24:13;;;;;;;0.75;0.75;;;8.20;72.80;;;;;;4969953;28;20169;-79
2023/01/07 05:26:39;;;;;;;1.30;1.00;;;8.20;73.00;;;;;;4969854;28;20030;-77
2023/01/07 05:29:05;;;;;;;0.63;0.63;;;8.30;73.10;;;;;;4969677;28;20030;-80
2023/01/07 05:31:30;;;;;;;0.75;0.70;;;8.20;73.00;;;;;;4969973;28;20027;-77
2023/01/07 05:33:56;;;;;;;1.73;1.10;;;8.30;73.10;;;;;;4973052;28;20041;-78
2023/01/07 05:36:21;;;;;;;2.95;1.27;;;8.20;73.00;;;;;;4973359;28;20023;-76
2023/01/07 05:38:47;;;;;;;1.58;1.23;;;8.30;73.00;;;;;;4972917;28;20110;-76
2023/01/07 05:41:12;;;;;;;0.80;0.80;;;8.20;72.80;;;;;;4972952;28;20035;-75
2023/01/07 05:43:38;;;;;;;0.80;0.80;;;8.20;72.90;;;;;;4972948;28;20023;-76
2023/01/07 05:46:04;;;;;;;3.70;1.83;;;8.20;72.80;;;;;;4972810;28;20050;-75
2023/01/07 05:48:30;;;;;;;2.90;1.52;;;8.20;72.90;;;;;;5021640;28;20124;-76
2023/01/07 05:50:55;;;;;;;3.95;2.30;;;8.20;73.10;;;;;;5054967;28;20048;-76
2023/01/07 05:53:21;;;;;;;3.78;2.08;;;8.20;73.10;;;;;;5054494;28;20053;-75
2023/01/07 05:55:46;;;;;;;4.32;3.17;;;8.20;73.20;;;;;;5054705;28;20021;-75
2023/01/07 05:58:12;;;;;;;3.38;2.72;;;8.20;73.00;;;;;;5054646;28;20029;-76
2023/01/07 06:00:38;;;;;;;3.08;2.60;;;8.10;73.20;;;;;;5054701;28;20052;-76
2023/01/07 06:03:03;;;;;;;4.35;3.20;;;8.10;73.30;;;;;;5054456;28;20029;-75
2023/01/07 06:05:29;;;;;;;5.38;4.25;;;8.00;73.50;;;;;;5054849;28;20021;-75
2023/01/07 06:07:55;;;;;;;5.63;4.28;;;8.00;73.60;;;;;;5054224;28;20037;-76
2023/01/07 06:10:20;;;;;;;6.40;4.03;;;8.00;73.60;;;;;;5054781;28;20029;-76
2023/01/07 06:12:46;;;;;;;6.88;4.18;;;7.90;74.20;;;;;;5021280;28;20059;-75
2023/01/07 06:15:13;;;;;;;5.78;4.22;;;7.80;74.60;;;;;;5054334;28;20017;-75
2023/01/07 06:17:39;;;;;;;6.00;4.68;;;7.90;74.90;;;;;;5055514;28;20024;-76
2023/01/07 06:20:05;;;;;;;7.22;5.32;;;7.90;74.70;;;;;;5054446;28;20427;-76
2023/01/07 06:22:30;;;;;;;6.43;4.82;;;7.80;74.70;;;;;;5054061;28;20072;-76
2023/01/07 06:24:56;;;;;;;7.50;4.93;;;7.90;74.60;;;;;;5054232;28;20025;-77
2023/01/07 06:27:22;;;;;;;6.53;4.57;;;7.90;74.50;;;;;;5054162;28;20504;-79
2023/01/07 06:29:47;;;;;;;5.60;4.07;;;7.90;74.60;;;;;;5053930;28;20025;-78
2023/01/07 06:32:13;;;;;;;6.63;4.70;;;8.00;74.50;;;;;;5053871;28;20029;-76
2023/01/07 06:34:38;;;;;;;7.25;4.22;;;8.00;74.40;;;;;;5054261;28;20432;-78
2023/01/07 06:37:04;;;;;;;8.32;5.45;;;8.00;74.30;;;;;;5054009;28;20052;-80
2023/01/07 06:39:31;;;;;;;8.02;5.63;;;8.10;74.40;;;;;;5053807;28;20025;-76
2023/01/07 06:41:57;;;;;;;8.57;6.00;;;8.00;74.00;;;;;;5053442;28;20096;-81
2023/01/07 06:44:22;;;;;;;8.50;6.07;;;8.00;74.00;;;;;;5053657;28;20032;-80
2023/01/07 06:46:48;;;;;;;10.07;7.13;;;8.00;73.90;;;;;;5053464;28;20524;-81
2023/01/07 06:49:13;;;;;;;10.18;7.40;;;8.00;73.70;;;;;;5053385;28;20028;-77
2023/01/07 06:51:39;;;;;;;9.82;6.90;;;8.00;73.70;;;;;;5053031;28;20045;-77
2023/01/07 06:54:04;;;;;;;9.65;6.53;;;7.90;74.20;;;;;;5053571;28;20104;-76
2023/01/07 06:56:30;;;;;;;10.55;7.38;;;7.80;74.40;;;;;;5053360;28;20389;-76
2023/01/07 06:58:56;;;;;;;10.32;7.07;;;7.70;75.30;;;;;;5053007;28;20100;-76
2023/01/07 07:01:21;;;;;;;10.20;7.07;;;7.70;74.90;;;;;;5053256;28;20033;-76
2023/01/07 07:03:47;;;;;;;10.23;6.20;;;7.70;75.10;;;;;;5053656;28;20075;-76
2023/01/07 07:06:13;;;;;;;7.85;6.00;;;7.70;75.30;;;;;;5053463;28;20029;-76
2023/01/07 07:08:39;;;;;;;10.30;7.65;;;7.80;75.20;;;;;;5053013;28;20432;-76
2023/01/07 07:11:04;;;;;;;9.32;6.97;;;7.80;74.90;;;;;;5053261;28;20071;-78
2023/01/07 07:13:30;;;;;;;12.13;8.68;;;7.70;75.40;;;;;;5053178;28;20104;-77
2023/01/07 07:15:56;;;;;;;14.07;8.80;;;7.80;74.70;;;;;;5052936;28;20548;-78
2023/01/07 07:18:27;;;;;;;11.43;7.97;;;7.70;74.50;;;;;;5036680;28;20029;-79
2023/01/07 07:20:52;;;;;;;11.57;7.75;;;7.70;74.80;;;;;;5053330;28;20539;-79
2023/01/07 07:23:18;;;;;;;11.60;7.93;;;7.70;74.90;;;;;;5052915;28;20029;-79
2023/01/07 07:25:44;;;;;;;10.65;7.75;;;7.80;74.80;;;;;;5052849;28;20557;-74
2023/01/07 07:28:09;;;;;;;11.65;8.30;;;7.80;75.00;;;;;;5035954;28;20037;-77
2023/01/07 07:30:36;;;;;;;13.55;8.85;;;7.80;75.50;;;;;;5052898;28;20334;-75
2023/01/07 07:33:03;;;;;;;14.77;10.07;;;7.70;74.70;;;;;;5053300;28;20371;-76
2023/01/07 07:35:29;;;;;;;13.00;8.77;;;7.60;74.90;;;;;;5052846;28;20021;-75
2023/01/07 07:37:54;;;;;;;14.02;9.85;;;7.60;75.20;;;;;;5052772;28;20108;-77
2023/01/07 07:40:20;;;;;;;14.48;9.80;;;7.50;75.50;;;;;;5052724;28;20109;-77
2023/01/07 07:42:46;;;;;;;13.23;9.25;;;7.40;76.00;;;;;;5052688;28;20027;-78
2023/01/07 07:45:15;;;;;;;12.25;9.13;;;7.40;76.20;;;;;;5052446;28;20483;-78
2023/01/07 07:47:41;;;;;;;10.60;8.75;;;7.50;75.90;;;;;;5053953;28;20477;-74
2023/01/07 07:50:12;;;;;;;11.60;8.18;;;7.50;76.20;;;;;;5053836;28;20100;-82
2023/01/07 07:52:38;;;;;;;12.55;8.90;;;7.50;76.40;;;;;;5016968;28;20053;-76
2023/01/07 07:55:07;;;;;;;13.40;10.02;;;7.40;76.50;;;;;;5049601;28;20026;-79
2023/01/07 07:57:34;;;;;;;12.38;8.98;;;7.50;76.50;;;;;;5033221;28;20502;-78
2023/01/07 08:00:00;;;;;;;12.93;9.32;;;7.50;76.10;;;;;;5032697;28;20478;-76
2023/01/07 08:02:25;;;;;;;13.73;9.75;;;7.50;75.60;;;;;;5031808;28;20059;-75
2023/01/07 08:04:51;;;;;;;11.93;8.52;;;7.50;75.90;;;;;;5032388;28;20474;-77
2023/01/07 08:07:18;;;;;;;11.32;8.30;;;7.50;75.60;;;;;;5034218;28;20026;-73
2023/01/07 08:09:45;;;;;;;12.00;8.65;;;7.50;75.50;;;;;;5032128;28;20485;-75
2023/01/07 08:12:11;;;;;;;12.48;9.23;;;7.50;75.30;;;;;;5034205;28;20451;-78
2023/01/07 08:14:47;;;;;;;11.88;8.98;;;7.40;75.50;;;;;;5050845;28;20055;-80
2023/01/07 08:17:12;;;;;;;14.25;9.82;;;7.40;75.80;;;;;;5032028;28;20022;-78
2023/01/07 08:19:38;;;;;;;13.43;8.02;;;7.50;76.80;;;;;;5033663;28;20028;-77
2023/01/07 08:22:07;;;;;;;14.52;9.45;;;7.60;78.30;;;;;;5033744;28;20382;-80
2023/01/07 08:24:54;;;;;;;11.95;8.93;;;7.70;77.40;;;;;;5031783;28;20029;-76
2023/01/07 08:27:21;;;;;;;11.23;8.45;;;7.70;75.80;;;;;;4992283;28;20128;-76
2023/01/07 08:29:46;;;;;;;14.02;9.35;;;7.80;75.90;;;;;;5004035;28;20108;-80
2023/01/07 08:32:12;;;;;;;22.58;9.48;;;7.90;76.10;;;;;;5032118;28;20499;-79
2023/01/07 08:34:38;;;;;;;17.65;9.80;;;8.20;79.20;;;;;;5031824;28;20018;-76
2023/01/07 08:37:03;;;;;;;13.18;9.50;;;8.30;74.50;;;;;;5031363;28;20052;-75
2023/01/07 08:39:29;;;;;;;11.10;8.30;;;8.40;74.30;;;;;;5031448;28;20075;-75
2023/01/07 08:41:56;;;;;;;12.25;8.75;;;8.40;72.40;;;;;;5031702;28;20373;-77
2023/01/07 08:44:21;;;;;;;13.15;9.32;;;8.30;75.40;;;;;;5031175;28;20022;-76
2023/01/07 08:46:47;;;;;;;11.90;9.15;;;8.10;73.50;;;;;;5031335;28;20030;-77
2023/01/07 08:49:13;;;;;;;13.88;10.05;;;8.00;73.50;;;;;;5031796;28;20485;-78
2023/01/07 08:51:39;;;;;;;13.52;8.90;;;7.90;75.00;;;;;;5036474;28;20049;-78
2023/01/07 08:54:04;;;;;;;11.82;9.02;;;7.90;75.50;;;;;;5051807;28;20045;-76
2023/01/07 08:56:32;;;;;;;14.15;9.93;;;7.70;74.40;;;;;;5051204;28;20017;-75
2023/01/07 08:58:58;;;;;;;12.13;8.77;;;7.60;74.70;;;;;;5051565;28;20116;-76
2023/01/07 09:01:23;;;;;;;10.88;7.97;;;7.60;75.20;;;;;;5050729;28;20429;-77
2023/01/07 09:03:49;;;;;;;11.23;8.60;;;7.50;75.50;;;;;;5051558;28;20021;-76
2023/01/07 09:06:15;;;;;;;11.18;8.57;;;7.50;74.80;;;;;;5053003;28;20116;-77
2023/01/07 09:08:41;;;;;;;11.00;8.23;;;7.50;75.20;;;;;;5055548;28;20074;-79
2023/01/07 09:11:07;;;;;;;11.48;8.02;;;7.50;75.40;;;;;;5039168;28;20025;-77
2023/01/07 09:13:32;;;;;;;10.35;7.18;;;7.70;76.20;;;;;;5055522;28;20377;-78
2023/01/07 09:15:58;;;;;;;10.20;8.43;;;7.90;73.70;;;;;;5055156;28;20155;-77
2023/01/07 09:18:24;;;;;;;10.27;8.05;;;7.90;72.90;;;;;;5056432;28;20033;-77
2023/01/07 09:20:50;;;;;;;10.25;8.07;;;8.00;72.40;;;;;;5055059;28;20025;-76
2023/01/07 09:23:16;;;;;;;9.30;6.82;;;7.90;72.80;;;;;;5055269;28;20057;-77
2023/01/07 09:25:43;;;;;;;12.95;8.20;;;8.00;72.40;;;;;;5056436;28;20063;-78
2023/01/07 09:28:08;;;;;;;7.82;6.50;;;8.10;72.20;;;;;;5054635;28;20397;-76
2023/01/07 09:30:34;;;;;;;13.32;8.82;;;8.20;71.70;;;;;;5054752;28;20021;-79
2023/01/07 09:32:59;;;;;;;9.57;7.45;;;8.30;70.60;;;;;;5055088;28;20094;-78
2023/01/07 09:35:27;;;;;;;9.90;7.30;;;8.20;70.00;;;;;;4998977;28;20085;-80
2023/01/07 09:37:54;;;;;;;9.77;7.35;;;7.90;70.80;;;;;;5054611;28;20029;-80
2023/01/07 09:40:32;;;;;;;10.85;7.68;;;7.80;72.20;;;;;;5054215;28;20028;-81
2023/01/07 09:43:16;;;;;;;10.88;7.25;;;7.70;73.00;;;;;;5034377;28;20155;-78
2023/01/07 09:45:47;;;;;;;8.70;6.38;;;7.60;73.00;;;;;;5006665;28;20055;-77
2023/01/07 09:48:40;;;;;;;9.75;7.20;;;7.60;72.90;;;;;;4965884;28;20513;-77
2023/01/07 09:51:18;;;;;;;9.25;6.75;;;7.70;72.40;;;;;;4955059;28;20058;-77
2023/01/07 09:53:53;;;;;;;8.70;6.55;;;7.70;72.40;;;;;;4940937;28;20041;-79
2023/01/07 09:56:38;;;;;;;9.02;5.22;;;7.80;71.90;;;;;;4940892;28;20080;-77
2023/01/07 09:59:05;;;;;;;11.75;7.35;;;7.90;71.00;;;;;;5004950;28;20047;-78
2023/01/07 10:02:13;;;;;;;9.10;6.65;;;8.00;70.80;;;;;;5028611;28;20028;-81
2023/01/07 10:05:01;;;;;;;10.57;6.50;;;8.20;70.30;;;;;;5057247;28;20112;-81
2023/01/07 10:07:58;;;;;;;10.57;6.53;;;8.30;69.70;;;;;;5057718;28;20192;-80
2023/01/07 10:10:40;;;;;;;9.05;6.55;;;8.40;69.70;;;;;;5058338;28;20035;-81
2023/01/07 10:13:24;;;;;;;10.48;7.18;;;8.60;69.00;;;;;;5075421;28;20029;-80
2023/01/07 10:15:58;;;;;;;7.65;5.88;;;8.70;68.10;;;;;;5057559;28;20120;-80
2023/01/07 10:18:56;;;;;;;7.47;5.70;;;8.70;66.70;;;;;;5057069;28;20028;-79
2023/01/07 10:21:41;;;;;;;8.90;5.85;;;8.60;67.60;;;;;;5056466;28;20456;-78
2023/01/07 10:24:27;;;;;;;9.43;6.50;;;8.50;67.40;;;;;;5057457;28;20071;-77
2023/01/07 10:27:00;;;;;;;9.68;6.53;;;8.40;67.50;;;;;;5071781;28;20416;-80
2023/01/07 10:29:34;;;;;;;10.25;6.63;;;8.40;68.20;;;;;;5040014;28;20136;-79
2023/01/07 10:32:12;;;;;;;7.47;6.03;;;8.40;69.00;;;;;;5056833;28;20027;-78
2023/01/07 10:34:55;;;;;;;8.95;6.38;;;8.40;68.50;;;;;;5057548;28;20115;-83
2023/01/07 10:37:40;;;;;;;8.93;6.05;;;8.40;68.50;;;;;;5025874;28;20033;-79
2023/01/07 10:40:28;;;;;;;10.60;5.90;;;8.60;67.70;;;;;;5057342;28;20126;-76
2023/01/07 10:43:22;;;;;;;7.22;5.63;;;9.00;66.40;;;;;;5056354;28;20036;-77
2023/01/07 10:46:22;;;;;;;7.88;6.00;;;9.40;64.50;;;;;;5052935;28;20020;-77
2023/01/07 10:49:01;;;;;;;8.07;5.55;;;9.90;63.60;;;;;;5056794;28;20037;-79
2023/01/07 10:51:42;;;;;;;7.53;5.60;;;10.80;59.90;;;;;;5056408;28;20543;-78
2023/01/07 10:54:34;;;;;;;9.13;5.53;;;11.30;57.20;;;;;;5056942;28;20024;-78
2023/01/07 10:57:06;;;;;;;6.80;4.65;;;12.00;55.10;;;;;;5056859;28;20392;-78
2023/01/07 10:59:32;;;;;;;6.45;4.68;;;12.50;53.60;;;;;;5056627;28;20027;-78
2023/01/07 11:01:58;;;;;;;6.88;5.28;;;12.70;52.20;;;;;;5056728;28;20388;-77
2023/01/07 11:04:24;;;;;;;6.40;4.97;;;13.00;51.50;;;;;;5056579;28;20063;-79
2023/01/07 11:06:59;;;;;;;6.95;5.30;;;13.40;50.20;;;;;;5056207;28;20020;-79
2023/01/07 11:09:30;;;;;;;6.80;4.82;;;13.70;49.20;;;;;;5053033;28;20036;-78
2023/01/07 11:12:00;;;;;;;6.70;4.82;;;14.10;48.20;;;;;;5056127;28;20048;-77
2023/01/07 11:14:33;;;;;;;6.72;4.28;;;14.60;47.40;;;;;;5056262;28;20017;-78
2023/01/07 11:17:13;;;;;;;6.18;4.40;;;15.20;45.90;;;;;;5056102;28;20299;-78
2023/01/07 11:19:44;;;;;;;5.25;4.35;;;15.50;43.80;;;;;;5056142;28;20039;-81
2023/01/07 11:22:24;;;;;;;5.32;4.03;;;16.00;42.00;;;;;;5041303;28;20028;-81
2023/01/07 11:24:51;;;;;;;6.38;4.63;;;16.40;41.70;;;;;;5062020;28;20029;-81
2023/01/07 11:27:18;;;;;;;4.72;3.65;;;17.00;40.30;;;;;;5057458;28;20051;-80
2023/01/07 11:29:45;;;;;;;5.65;4.10;;;17.60;38.60;;;;;;5056963;28;20066;-78
2023/01/07 11:32:25;;;;;;;5.15;4.38;;;18.00;37.60;;;;;;5056354;28;20166;-78
2023/01/07 11:34:55;;;;;;;4.20;3.80;;;18.80;36.10;;;;;;5056352;28;20036;-79
2023/01/07 11:37:38;;;;;;;6.18;3.88;;;19.30;34.20;;;;;;5056401;28;20342;-79
2023/01/07 11:40:25;;;;;;;5.03;4.20;;;19.50;33.50;;;;;;5055591;28;20024;-78
2023/01/07 11:43:02;;;;;;;5.68;4.05;;;19.70;33.00;;;;;;5055218;28;20362;-79
2023/01/07 11:45:35;;;;;;;5.40;3.97;;;20.40;32.50;;;;;;5055533;28;20104;-76
2023/01/07 11:48:24;;;;;;;4.72;4.18;;;21.30;31.30;;;;;;5073607;28;20047;-83
2023/01/07 11:50:56;;;;;;;4.50;3.58;;;21.90;29.30;;;;;;5055130;28;20481;-78
2023/01/07 11:53:40;;;;;;;5.50;3.92;;;22.50;28.50;;;;;;5055568;28;20054;-77
2023/01/07 11:56:08;;;;;;;5.68;4.50;;;23.30;27.20;;;;;;5055495;28;20021;-79
2023/01/07 11:58:46;;;;;;;6.25;3.95;;;24.10;25.50;;;;;;5055452;28;20066;-77
2023/01/07 12:01:18;;;;;;;5.82;3.88;;;24.50;24.70;;;;;;5055573;28;20043;-79
2023/01/07 12:04:09;;;;;;;5.15;3.88;;;25.20;23.30;;;;;;5039091;28;20473;-78
2023/01/07 12:06:39;;;;;;;4.18;3.60;;;25.60;21.90;;;;;;5055334;28;20035;-80
2023/01/07 12:09:22;;;;;;;4.15;3.67;;;25.90;20.60;;;;;;5055595;28;20058;-78
2023/01/07 12:11:49;;;;;;;4.10;2.90;;;26.40;20.50;;;;;;5055093;28;20055;-78
2023/01/07 12:14:27;;;;;;;4.60;3.38;;;26.50;19.60;;;;;;5055408;28;20050;-78
2023/01/07 12:16:54;;;;;;;3.00;2.70;;;26.80;19.20;;;;;;5055720;28;20054;-81
2023/01/07 12:19:30;;;;;;;3.13;2.83;;;27.00;19.00;;;;;;5055835;28;20037;-84
2023/01/07 12:22:27;;;;;;;3.50;3.10;;;27.70;18.50;;;;;;5055618;28;20028;-76
2023/01/07 12:25:16;;;;;;;2.70;2.50;;;28.10;17.40;;;;;;5073966;28;20025;-79
2023/01/07 12:28:05;;;;;;;3.05;2.70;;;28.50;17.50;;;;;;5055561;28;20032;-78
2023/01/07 12:30:59;;;;;;;4.60;2.65;;;29.70;16.70;;;;;;5055571;28;20025;-81
2023/01/07 12:34:03;;;;;;;3.83;2.90;;;30.90;14.90;;;;;;5055391;28;20024;-79
2023/01/07 12:36:51;;;;;;;2.65;2.40;;;31.90;13.60;;;;;;5020160;28;20025;-77
2023/01/07 12:39:26;;;;;;;3.08;1.88;;;32.20;13.40;;;;;;5055821;28;20056;-78
2023/01/07 12:42:01;;;;;;;4.63;2.50;;;32.80;12.80;;;;;;5072616;28;20029;-76
2023/01/07 12:44:27;;;;;;;;;;;33.40;12.00;;;;;;5058661;28;20028;-77
2023/01/07 12:47:04;;;;;;;2.65;2.35;;;32.00;12.40;;;;;;5057353;28;19927;-78
2023/01/07 12:49:38;;;;;;;2.53;1.90;;;31.90;12.50;;;;;;5073843;28;20025;-78
2023/01/07 12:52:16;;;;;;;2.83;2.40;;;32.50;12.70;;;;;;5072097;28;20539;-79
2023/01/07 12:55:03;;;;;;;2.70;2.50;;;33.10;12.20;;;;;;5054822;28;20111;-80
2023/01/07 12:57:33;;;;;;;2.92;2.30;;;33.60;11.10;;;;;;5055335;28;20036;-80
2023/01/07 13:00:12;;;;;;;2.20;2.10;;;33.70;11.00;;;;;;5055922;28;20120;-79
2023/01/07 13:02:50;;;;;;;3.38;2.53;;;33.60;10.90;;;;;;5055183;28;20067;-81
2023/01/07 13:05:23;;;;;;;2.47;2.28;;;33.00;11.30;;;;;;5055215;28;20492;-81
2023/01/07 13:08:02;;;;;;;2.35;2.15;;;32.50;11.80;;;;;;5054870;28;20034;-80
2023/01/07 13:10:39;;;;;;;2.42;2.22;;;32.60;11.50;;;;;;5071510;28;20119;-82
2023/01/07 13:13:12;;;;;;;2.97;2.38;;;32.10;12.00;;;;;;5055210;28;20110;-82
2023/01/07 13:15:40;;;;;;;3.38;2.78;;;32.00;12.50;;;;;;5055101;28;20064;-82